Time;durP1;ratioP1;P1;durP2;ratioP2;P2;SDS_P1;SDS_P2;PMS_P1;PMS_P2;Temp;Humidity;BMP_temperature;BMP_pressure;BME280_temperature;BME280_humidity;BME280_pressure;Samples;Min_cycle;Max_cycle;Signal;HPM_P1;HPM_P2
2021/01/16 00:00:57;;;;;;;12.95;6.58;;;;;;;-8.91;69.73;99000.41;1647239;86;21199;-57
2021/01/16 00:03:25;;;;;;;17.07;8.25;;;;;;;-8.91;69.52;99001.73;1645968;86;21317;-56
2021/01/16 00:05:53;;;;;;;14.30;7.53;;;;;;;-8.95;69.73;98996.95;1674978;84;21165;-56
2021/01/16 00:08:22;;;;;;;13.50;6.70;;;;;;;-8.98;69.83;98993.33;1697643;84;21496;-56
2021/01/16 00:10:52;;;;;;;13.03;6.45;;;;;;;-8.99;70.18;98985.08;1705076;84;21291;-56
2021/01/16 00:13:23;;;;;;;23.27;10.68;;;;;;;-8.93;70.22;98983.95;1709289;82;21185;-56
2021/01/16 00:15:51;;;;;;;19.87;8.93;;;;;;;-8.96;70.32;98978.98;1704781;83;21154;-56
2021/01/16 00:18:21;;;;;;;15.38;8.00;;;;;;;-8.98;70.47;98980.97;1708203;82;21377;-56
2021/01/16 00:20:52;;;;;;;14.53;6.92;;;;;;;-9.00;70.48;98975.05;1689306;84;21311;-56
2021/01/16 00:23:24;;;;;;;15.35;7.35;;;;;;;-9.10;70.29;98989.70;1707383;84;21646;-56
2021/01/16 00:25:52;;;;;;;14.68;7.20;;;;;;;-9.10;70.60;98969.09;1711501;83;21307;-56
2021/01/16 00:28:22;;;;;;;10.82;5.50;;;;;;;-9.09;70.83;98979.50;1694885;83;21149;-57
2021/01/16 00:30:50;;;;;;;12.90;5.95;;;;;;;-9.07;70.95;98988.57;1633641;86;21330;-56
2021/01/16 00:33:35;;;;;;;13.32;6.85;;;;;;;-9.09;71.12;98979.50;1721652;83;21307;-56
2021/01/16 00:36:04;;;;;;;14.65;6.65;;;;;;;-9.07;70.96;98976.70;1717552;82;21153;-57
2021/01/16 00:38:42;;;;;;;17.02;7.53;;;;;;;-9.11;71.03;98984.61;1715713;83;21141;-56
2021/01/16 00:41:10;;;;;;;17.70;8.08;;;;;;;-9.13;71.08;98980.81;1714604;83;21316;-56
2021/01/16 00:43:38;;;;;;;16.23;7.28;;;;;;;-9.20;71.33;98982.46;1713638;83;21192;-56
2021/01/16 00:46:07;;;;;;;14.78;6.97;;;;;;;-9.14;71.11;98976.52;1720290;82;21636;-56
2021/01/16 00:48:35;;;;;;;16.25;7.67;;;;;;;-9.17;71.05;98988.72;1714049;83;21290;-57
2021/01/16 00:51:04;;;;;;;37.00;14.90;;;;;;;-9.15;71.13;98994.67;1720316;82;21152;-56
2021/01/16 00:53:33;;;;;;;24.15;10.93;;;;;;;-9.21;70.52;98999.78;1672906;83;21164;-56
2021/01/16 00:56:04;;;;;;;26.37;12.70;;;;;;;-9.38;69.66;99003.36;1714371;82;21298;-56
2021/01/16 00:58:33;;;;;;;27.95;11.45;;;;;;;-9.63;68.69;99010.41;1690222;85;21727;-56
2021/01/16 01:01:03;;;;;;;33.40;12.07;;;;;;;-9.85;67.92;98999.17;1697027;83;21158;-56
2021/01/16 01:03:33;;;;;;;26.87;12.13;;;;;;;-10.06;68.25;99004.05;1693875;83;21326;-56
2021/01/16 01:06:02;;;;;;;31.95;15.03;;;;;;;-10.22;68.70;98996.92;1701219;82;21149;-56
2021/01/16 01:08:30;;;;;;;22.45;10.28;;;;;;;-10.44;69.32;99002.25;1694566;83;21342;-56
2021/01/16 01:10:58;;;;;;;26.52;12.78;;;;;;;-10.52;69.38;99002.71;1722680;82;21173;-56
2021/01/16 01:13:26;;;;;;;23.22;9.48;;;;;;;-10.70;69.72;98999.62;1718244;83;21152;-56
2021/01/16 01:15:54;;;;;;;23.35;10.32;;;;;;;-10.84;70.10;99001.51;1721681;83;21186;-57
2021/01/16 01:18:22;;;;;;;50.92;21.70;;;;;;;-10.89;70.44;99005.11;1720907;83;21291;-56
2021/01/16 01:20:50;;;;;;;20.32;9.55;;;;;;;-10.97;70.68;99003.73;1722385;83;21141;-56
2021/01/16 01:23:18;;;;;;;23.05;10.65;;;;;;;-11.03;70.92;99011.41;1719882;82;21180;-56
2021/01/16 01:25:46;;;;;;;23.30;10.80;;;;;;;-11.06;71.19;99007.28;1714966;83;21160;-56
2021/01/16 01:28:14;;;;;;;19.73;10.65;;;;;;;-11.04;71.07;99009.27;1711972;83;21190;-56
2021/01/16 01:30:43;;;;;;;31.42;13.85;;;;;;;-10.99;71.03;99012.27;1716255;83;21624;-56
2021/01/16 01:33:15;;;;;;;30.02;13.70;;;;;;;-11.00;71.04;99018.49;1712075;82;21291;-56
2021/01/16 01:35:43;;;;;;;33.48;13.38;;;;;;;-11.05;71.22;99007.60;1701122;83;21307;-56
2021/01/16 01:38:19;;;;;;;35.40;14.00;;;;;;;-11.01;71.20;99009.44;1722251;83;21164;-57
2021/01/16 01:40:48;;;;;;;16.75;7.87;;;;;;;-10.98;71.29;99016.53;1719142;83;21729;-56
2021/01/16 01:43:16;;;;;;;17.57;8.00;;;;;;;-10.93;71.16;99012.13;1720918;82;21232;-56
2021/01/16 01:45:44;;;;;;;21.93;10.10;;;;;;;-10.93;70.94;99006.39;1701289;83;21192;-56
2021/01/16 01:50:48;;;;;;;18.07;7.45;;;;;;;-10.98;70.63;99020.98;1778767;79;22990;-57
2021/01/16 01:53:16;;;;;;;15.83;6.58;;;;;;;-11.14;70.73;99032.18;1717363;82;21197;-55
2021/01/16 01:55:45;;;;;;;18.87;8.65;;;;;;;-11.23;70.52;99024.70;1713797;83;21173;-55
2021/01/16 01:58:15;;;;;;;13.68;6.50;;;;;;;-11.21;70.55;99021.94;1703897;82;21294;-56
2021/01/16 02:00:43;;;;;;;16.57;6.33;;;;;;;-11.23;70.19;99019.45;1645735;87;21172;-57
2021/01/16 02:03:12;;;;;;;18.20;6.78;;;;;;;-11.27;69.96;99019.92;1667185;85;21170;-56
2021/01/16 02:05:40;;;;;;;12.37;5.00;;;;;;;-11.33;69.81;99025.77;1657819;85;21236;-56
2021/01/16 02:08:10;;;;;;;13.90;6.33;;;;;;;-11.45;69.40;99025.19;1655291;85;21230;-55
2021/01/16 02:10:38;;;;;;;8.08;2.98;;;;;;;-11.46;68.85;99039.77;1623795;87;21244;-56
2021/01/16 02:13:07;;;;;;;10.00;4.45;;;;;;;-11.53;67.61;99047.91;1658088;85;21198;-58
2021/01/16 02:15:56;;;;;;;14.15;5.35;;;;;;;-11.73;65.44;99048.08;1656329;85;21240;-56
2021/01/16 02:18:35;;;;;;;8.53;4.28;;;;;;;-11.79;65.01;99049.13;1656527;86;21320;-57
2021/01/16 02:21:06;;;;;;;11.30;4.87;;;;;;;-12.00;64.28;99047.25;1676778;84;21700;-57
2021/01/16 02:23:37;;;;;;;13.80;4.83;;;;;;;-12.20;63.51;99051.30;1676127;85;21176;-56
2021/01/16 02:26:25;;;;;;;14.60;5.78;;;;;;;-12.31;63.88;99055.89;1644596;84;21616;-56
2021/01/16 02:28:58;;;;;;;;;;;;;;;-12.36;64.06;99056.82;1678732;85;21190;-56
2021/01/16 02:31:59;;;;;;;13.45;5.35;;;;;;;-12.47;64.00;99048.65;1696113;83;20163;-57
2021/01/16 02:34:34;;;;;;;13.95;6.55;;;;;;;-12.66;64.32;99052.14;1714416;83;21441;-57
2021/01/16 02:59:44;;;;;;;17.70;6.58;;;;;;;-12.93;65.27;99069.11;1811339;77;22176;-56
2021/01/16 03:02:13;;;;;;;14.65;5.47;;;;;;;-13.09;65.60;99073.27;1765048;80;21739;-55
2021/01/16 03:04:42;;;;;;;14.03;6.00;;;;;;;-13.17;65.82;99073.48;1765920;80;21141;-56
2021/01/16 03:07:13;;;;;;;11.88;4.83;;;;;;;-13.22;66.09;99073.56;1757395;81;21299;-56
2021/01/16 03:09:41;;;;;;;11.38;4.95;;;;;;;-13.24;66.34;99068.92;1761216;80;21315;-56
2021/01/16 03:12:09;;;;;;;12.88;4.80;;;;;;;-13.32;66.51;99066.19;1759721;80;21186;-55
2021/01/16 03:14:44;;;;;;;14.40;6.55;;;;;;;-13.33;66.71;99060.59;1756875;81;21295;-56
2021/01/16 03:17:13;;;;;;;15.53;6.35;;;;;;;-13.33;66.63;99076.31;1758201;80;21291;-57
2021/01/16 03:19:44;;;;;;;12.95;5.67;;;;;;;-13.32;66.60;99075.36;1770613;80;21728;-56
2021/01/16 03:22:26;;;;;;;16.62;6.97;;;;;;;-13.40;66.43;99080.44;1758443;81;21168;-56
2021/01/16 03:24:58;;;;;;;16.23;6.15;;;;;;;-13.41;66.47;99074.85;1757856;80;21157;-55
2021/01/16 03:27:26;;;;;;;17.42;8.10;;;;;;;-13.50;66.08;99088.30;1773820;80;21163;-55
2021/01/16 03:29:54;;;;;;;15.05;6.08;;;;;;;-13.46;66.23;99083.61;1759447;80;21193;-56
2021/01/16 03:32:23;;;;;;;15.78;6.80;;;;;;;-13.44;66.26;99077.75;1768564;80;21324;-56
2021/01/16 03:34:51;;;;;;;15.63;6.28;;;;;;;-13.56;65.63;99082.27;1708722;83;21165;-56
2021/01/16 03:37:19;;;;;;;17.27;7.00;;;;;;;-13.58;65.82;99079.45;1698092;84;21189;-57
2021/01/16 03:39:49;;;;;;;16.80;7.28;;;;;;;-13.63;65.77;99085.56;1707002;83;21746;-56
2021/01/16 03:42:17;;;;;;;16.27;7.62;;;;;;;-13.68;65.96;99088.13;1707153;83;21173;-56
2021/01/16 03:44:45;;;;;;;14.40;6.40;;;;;;;-13.70;66.03;99090.03;1707725;83;21227;-56
2021/01/16 03:47:14;;;;;;;16.23;7.50;;;;;;;-13.81;65.96;99087.53;1708796;83;21202;-56
2021/01/16 03:49:42;;;;;;;26.10;10.03;;;;;;;-13.88;66.08;99094.73;1698355;84;21663;-56
2021/01/16 03:52:10;;;;;;;12.47;5.35;;;;;;;-14.01;66.45;99093.67;1701996;83;21203;-56
2021/01/16 03:54:38;;;;;;;17.00;6.40;;;;;;;-14.03;66.60;99096.09;1691321;83;21306;-56
2021/01/16 03:57:06;;;;;;;17.27;7.05;;;;;;;-14.13;66.76;99092.11;1702039;83;21291;-56
2021/01/16 03:59:34;;;;;;;14.98;6.55;;;;;;;-14.16;66.67;99084.53;1690710;82;21311;-56
2021/01/16 04:02:03;;;;;;;16.73;6.87;;;;;;;-14.26;66.83;99087.11;1717586;82;21566;-56
2021/01/16 04:04:32;;;;;;;21.95;9.60;;;;;;;-14.30;66.96;99079.18;1720723;82;21158;-55
2021/01/16 04:07:00;;;;;;;18.30;7.97;;;;;;;-14.33;66.98;99088.59;1717180;82;21345;-59
2021/01/16 04:09:28;;;;;;;23.05;8.78;;;;;;;-14.31;66.99;99096.33;1715696;82;21197;-56
2021/01/16 04:11:56;;;;;;;19.02;7.90;;;;;;;-14.31;66.93;99091.09;1715356;82;21223;-55
2021/01/16 04:14:24;;;;;;;21.95;9.48;;;;;;;-14.31;66.87;99099.73;1718736;82;21146;-56
2021/01/16 04:16:52;;;;;;;24.47;10.45;;;;;;;-14.30;66.75;99088.33;1717699;82;21174;-56
2021/01/16 04:19:20;;;;;;;21.35;10.80;;;;;;;-14.27;66.65;99089.38;1719923;82;21174;-56
2021/01/16 04:21:49;;;;;;;17.07;7.55;;;;;;;-14.27;66.51;99089.84;1720205;82;21187;-56
2021/01/16 04:24:17;;;;;;;20.25;8.88;;;;;;;-14.33;66.38;99099.06;1723106;82;21162;-56
2021/01/16 04:26:47;;;;;;;18.98;8.58;;;;;;;-14.45;66.25;99098.81;1760374;80;21130;-56
2021/01/16 04:29:15;;;;;;;16.93;6.17;;;;;;;-14.57;66.33;99088.58;1727054;80;21153;-58
2021/01/16 04:31:43;;;;;;;18.90;8.18;;;;;;;-14.65;66.40;99097.53;1750996;80;21150;-56
2021/01/16 04:34:11;;;;;;;25.68;9.35;;;;;;;-14.69;66.46;99095.66;1750955;82;21355;-57
2021/01/16 04:36:39;;;;;;;22.42;8.65;;;;;;;-14.78;66.48;99110.81;1753223;80;21730;-56
2021/01/16 04:39:08;;;;;;;19.32;8.28;;;;;;;-14.84;66.54;99106.10;1752531;80;21149;-56
2021/01/16 04:41:36;;;;;;;24.52;11.83;;;;;;;-14.87;66.51;99103.24;1752734;80;21157;-56
2021/01/16 04:44:05;;;;;;;22.32;9.35;;;;;;;-14.86;66.51;99109.30;1750508;80;21715;-56
2021/01/16 04:46:33;;;;;;;21.07;8.75;;;;;;;-14.83;66.38;99117.71;1752896;80;21803;-56
2021/01/16 04:49:05;;;;;;;24.67;10.43;;;;;;;-14.86;66.28;99116.66;1752135;80;21157;-57
2021/01/16 04:51:43;;;;;;;19.80;8.23;;;;;;;-14.89;66.31;99120.84;1750928;82;21181;-57
2021/01/16 04:54:07;;;;;;;22.07;8.70;;;;;;;-14.92;66.27;99121.57;1763784;80;21719;-58
2021/01/16 04:56:35;;;;;;;17.98;6.97;;;;;;;-14.96;66.24;99126.22;1751366;82;21157;-56
2021/01/16 04:59:04;;;;;;;15.55;6.47;;;;;;;-14.96;66.37;99139.28;1753895;82;21689;-57
2021/01/16 05:01:32;;;;;;;19.15;7.55;;;;;;;-14.99;66.44;99143.92;1754387;82;21275;-57
2021/01/16 05:04:00;;;;;;;23.62;8.65;;;;;;;-15.11;66.55;99139.69;1764565;80;21712;-56
2021/01/16 05:06:29;;;;;;;20.27;7.90;;;;;;;-15.14;66.59;99136.86;1757025;80;21280;-56
2021/01/16 05:08:58;;;;;;;17.70;6.67;;;;;;;-15.15;66.56;99135.67;1709219;83;21339;-56
2021/01/16 05:11:37;;;;;;;17.98;6.72;;;;;;;-15.23;66.65;99150.17;1703144;84;21339;-56
2021/01/16 05:14:12;;;;;;;20.57;6.65;;;;;;;-15.39;66.86;99143.23;1690556;83;21716;-57
2021/01/16 05:16:58;;;;;;;21.48;8.68;;;;;;;-15.46;66.96;99149.06;1710976;83;21193;-57
2021/01/16 05:19:34;;;;;;;19.80;8.53;;;;;;;-15.50;66.95;99156.34;1702958;84;21355;-56
2021/01/16 05:22:02;;;;;;;17.60;7.90;;;;;;;-15.68;66.83;99129.57;1673835;84;21203;-57
2021/01/16 05:24:30;;;;;;;22.32;9.45;;;;;;;-15.59;66.83;99169.30;1706937;83;21299;-57
2021/01/16 05:27:04;;;;;;;22.50;8.20;;;;;;;-15.60;66.83;99165.02;1728611;83;21627;-56
2021/01/16 05:29:34;;;;;;;16.37;7.03;;;;;;;-15.63;66.73;99165.27;1725684;82;21384;-58
2021/01/16 05:32:04;;;;;;;22.30;8.43;;;;;;;-15.62;66.70;99159.11;1710138;83;21165;-58
2021/01/16 05:34:34;;;;;;;19.55;7.83;;;;;;;-15.66;66.56;99170.73;1723967;82;21173;-57
2021/01/16 05:37:03;;;;;;;19.52;6.70;;;;;;;-15.74;66.36;99166.11;1719197;82;21154;-57
2021/01/16 05:39:33;;;;;;;19.37;6.92;;;;;;;-15.79;66.16;99174.29;1735825;82;21145;-57
2021/01/16 05:42:04;;;;;;;22.30;8.30;;;;;;;-15.83;65.93;99179.39;1664743;85;21308;-58
2021/01/16 05:44:33;;;;;;;15.10;4.85;;;;;;;-15.83;65.83;99183.30;1704429;83;21303;-58
2021/01/16 05:47:03;;;;;;;12.03;4.67;;;;;;;-15.87;65.62;99175.36;1677268;84;21348;-58
2021/01/16 05:49:32;;;;;;;15.32;5.20;;;;;;;-15.97;65.48;99173.58;1677334;84;21214;-58
2021/01/16 05:52:00;;;;;;;17.90;6.37;;;;;;;-16.05;65.41;99172.90;1671052;84;21343;-57
2021/01/16 05:54:29;;;;;;;21.68;7.05;;;;;;;-16.22;65.65;99178.55;1658132;83;21185;-57
2021/01/16 05:56:58;;;;;;;21.10;7.00;;;;;;;-16.18;65.72;99183.06;1720965;83;21168;-58
2021/01/16 05:59:28;;;;;;;17.67;5.83;;;;;;;-16.19;65.77;99191.38;1653014;84;21149;-57
2021/01/16 06:01:57;;;;;;;20.85;6.87;;;;;;;-16.20;65.78;99187.10;1712671;81;21336;-58
2021/01/16 06:04:25;;;;;;;15.30;4.87;;;;;;;-16.23;65.86;99200.37;1677147;84;21226;-57
2021/01/16 06:06:54;;;;;;;26.87;8.40;;;;;;;-16.32;65.89;99195.84;1693198;84;21438;-58
2021/01/16 06:09:22;;;;;;;15.78;5.08;;;;;;;-16.36;65.77;99210.05;1743006;81;21190;-57
2021/01/16 06:11:51;;;;;;;10.05;3.67;;;;;;;-16.41;65.40;99211.72;1740879;82;21643;-58
2021/01/16 06:14:19;;;;;;;14.80;5.28;;;;;;;-16.44;65.27;99212.42;1740853;81;21171;-57
2021/01/16 06:16:54;;;;;;;15.15;6.15;;;;;;;-16.49;65.28;99210.62;1740952;81;21184;-57
2021/01/16 06:19:23;;;;;;;18.87;6.70;;;;;;;-16.55;65.35;99211.92;1742173;82;21284;-58
2021/01/16 06:21:51;;;;;;;15.38;4.70;;;;;;;-16.52;65.22;99227.31;1742048;81;21146;-57
2021/01/16 06:24:23;;;;;;;21.37;7.40;;;;;;;-16.54;65.19;99229.19;1743385;81;21190;-57
2021/01/16 06:26:57;;;;;;;15.05;5.45;;;;;;;-16.57;65.16;99227.31;1759278;81;21685;-57
2021/01/16 06:29:29;;;;;;;13.85;6.03;;;;;;;-16.56;65.15;99235.50;1679537;84;21725;-58
2021/01/16 06:32:10;;;;;;;14.85;5.50;;;;;;;-16.57;65.16;99239.04;1753181;81;21161;-58
2021/01/16 06:34:43;;;;;;;22.45;8.15;;;;;;;-16.49;65.14;99244.02;1742955;81;21281;-58
2021/01/16 06:37:15;;;;;;;25.62;8.75;;;;;;;-16.40;65.03;99250.33;1743924;81;21298;-58
2021/01/16 06:39:46;;;;;;;25.75;9.33;;;;;;;-16.36;64.87;99234.80;1742560;81;21174;-58
2021/01/16 06:42:22;;;;;;;25.97;10.90;;;;;;;-16.32;64.83;99241.45;1741819;81;21319;-57
2021/01/16 06:45:02;;;;;;;23.18;8.35;;;;;;;-16.28;64.77;99245.02;1721163;82;21377;-57
2021/01/16 06:47:32;;;;;;;24.75;9.33;;;;;;;-16.21;64.82;99244.08;1724764;81;21153;-58
2021/01/16 06:50:00;;;;;;;26.40;9.23;;;;;;;-16.18;64.91;99246.92;1742497;82;21138;-58
2021/01/16 06:52:36;;;;;;;27.15;9.35;;;;;;;-16.21;64.95;99251.90;1719110;81;21153;-58
2021/01/16 06:55:07;;;;;;;25.00;8.20;;;;;;;-16.16;64.91;99253.70;1742889;81;21305;-57
2021/01/16 06:57:34;;;;;;;23.75;6.17;;;;;;;-16.14;64.78;99252.27;1742259;82;21161;-57
2021/01/16 07:00:07;;;;;;;22.25;8.60;;;;;;;-16.14;64.38;99250.95;1750779;81;21176;-57
2021/01/16 07:02:37;;;;;;;19.67;6.80;;;;;;;-16.10;64.34;99254.53;1747512;80;21271;-57
2021/01/16 07:05:13;;;;;;;21.42;6.80;;;;;;;-15.96;63.99;99250.87;1705889;83;21594;-57
2021/01/16 07:07:41;;;;;;;20.60;8.08;;;;;;;-15.99;63.27;99243.28;1695349;83;21730;-57
2021/01/16 07:10:15;;;;;;;20.25;7.08;;;;;;;-15.98;63.44;99251.47;1707181;83;21200;-57
2021/01/16 07:12:48;;;;;;;18.60;7.45;;;;;;;-15.85;63.50;99262.62;1718462;83;21621;-58
2021/01/16 07:15:17;;;;;;;22.22;8.20;;;;;;;-15.76;62.82;99264.50;1732825;82;21312;-56
2021/01/16 07:17:46;;;;;;;21.73;7.85;;;;;;;-15.60;62.66;99275.44;1718657;83;21236;-56
2021/01/16 07:20:15;;;;;;;20.43;6.92;;;;;;;-15.40;61.96;99277.28;1718634;83;21193;-56
2021/01/16 07:22:44;;;;;;;10.28;4.17;;;;;;;-15.30;61.10;99287.86;1694611;83;21294;-56
2021/01/16 07:25:13;;;;;;;17.95;6.60;;;;;;;-15.25;60.46;99281.78;1705233;83;21533;-57
2021/01/16 07:27:42;;;;;;;14.65;5.95;;;;;;;-15.16;60.26;99278.47;1720552;82;21696;-56
2021/01/16 07:30:12;;;;;;;14.83;5.33;;;;;;;-15.15;59.78;99284.48;1705514;83;21198;-57
2021/01/16 07:32:46;;;;;;;22.42;6.35;;;;;;;-15.09;59.70;99287.95;1703670;83;21160;-57
2021/01/16 07:35:19;;;;;;;18.57;5.72;;;;;;;-14.89;59.93;99286.70;1696990;82;21720;-57
2021/01/16 07:37:49;;;;;;;18.45;5.90;;;;;;;-14.72;59.17;99281.42;1748378;82;21181;-57
2021/01/16 07:45:18;;;;;;;15.03;6.00;;;;;;;-14.10;58.03;99289.33;1779730;79;23014;-57
2021/01/16 07:47:47;;;;;;;16.05;6.42;;;;;;;-14.05;57.37;99302.01;1651757;85;21203;-56
2021/01/16 07:50:30;;;;;;;17.73;6.45;;;;;;;-14.05;57.23;99295.47;1655679;85;21350;-56
2021/01/16 07:53:02;;;;;;;17.32;6.08;;;;;;;-13.91;56.94;99295.14;1659594;85;21638;-58
2021/01/16 07:55:41;;;;;;;19.45;6.33;;;;;;;-13.80;55.74;99302.45;1653991;86;21194;-58
2021/01/16 07:58:31;;;;;;;13.00;5.37;;;;;;;-13.80;55.32;99311.61;1662611;84;21163;-57
2021/01/16 08:01:16;;;;;;;14.05;4.60;;;;;;;-13.81;55.47;99312.56;1659151;85;21139;-56
2021/01/16 08:04:08;;;;;;;13.65;4.97;;;;;;;-13.80;54.76;99314.70;1680874;85;21167;-55
2021/01/16 08:06:53;;;;;;;17.62;5.70;;;;;;;-13.76;55.22;99311.71;1655806;85;21313;-56
2021/01/16 08:09:32;;;;;;;17.73;6.62;;;;;;;-13.89;54.38;99323.34;1663819;85;21277;-57
2021/01/16 08:12:01;;;;;;;14.93;4.90;;;;;;;-13.92;55.20;99328.33;1672627;85;21187;-56
2021/01/16 08:14:33;;;;;;;17.35;6.15;;;;;;;-13.92;54.87;99327.02;1653472;87;21264;-57
2021/01/16 08:17:01;;;;;;;16.20;6.00;;;;;;;-13.92;54.89;99327.52;1665366;84;21232;-57
2021/01/16 08:20:02;;;;;;;19.05;5.92;;;;;;;-13.89;55.07;99325.48;1669975;85;21329;-56
2021/01/16 08:22:42;;;;;;;14.23;5.10;;;;;;;-13.84;54.75;99321.98;1653828;87;21373;-57
2021/01/16 08:25:14;;;;;;;15.15;4.97;;;;;;;-13.95;54.59;99319.90;1654504;85;21189;-57
2021/01/16 08:27:47;;;;;;;13.45;4.58;;;;;;;-13.89;54.97;99322.03;1675722;85;21336;-57
2021/01/16 08:30:19;;;;;;;16.95;6.33;;;;;;;-13.97;54.21;99328.37;1681076;85;21622;-57
2021/01/16 08:33:06;;;;;;;13.05;4.62;;;;;;;-14.04;54.86;99324.59;1675817;85;21810;-57
2021/01/16 08:35:48;;;;;;;14.83;5.80;;;;;;;-14.01;55.08;99323.03;1678455;84;21336;-57
2021/01/16 08:38:20;;;;;;;19.80;6.58;;;;;;;-13.85;54.98;99318.20;1672439;85;21321;-58
2021/01/16 08:41:03;;;;;;;16.90;5.53;;;;;;;-13.67;54.87;99325.80;1672973;85;21174;-57
2021/01/16 08:43:37;;;;;;;20.88;6.42;;;;;;;-13.46;55.03;99323.98;1668660;85;21715;-56
2021/01/16 08:46:11;;;;;;;20.40;7.40;;;;;;;-13.28;53.79;99328.13;1650838;85;21203;-55
2021/01/16 08:48:40;;;;;;;13.88;5.03;;;;;;;-13.34;53.68;99328.66;1642788;84;21330;-55
2021/01/16 08:51:33;;;;;;;10.72;4.00;;;;;;;-13.30;53.34;99330.06;1655357;84;21164;-57
2021/01/16 08:54:21;;;;;;;20.43;6.03;;;;;;;-13.32;53.31;99330.69;1647767;86;21173;-56
2021/01/16 09:04:48;;;;;;;11.10;4.53;;;;;;;-13.59;54.79;99314.68;1754197;79;23125;-55
2021/01/16 09:07:22;;;;;;;12.25;3.95;;;;;;;-13.69;54.49;99318.09;1708293;83;21334;-55
2021/01/16 09:10:06;;;;;;;8.58;2.98;;;;;;;-13.74;54.49;99316.33;1707831;83;21173;-54
2021/01/16 09:12:40;;;;;;;13.78;5.97;;;;;;;-13.87;54.63;99326.17;1651476;85;21327;-55
2021/01/16 09:18:13;;;;;;;9.68;4.40;;;;;;;-13.74;54.89;99306.33;1750988;79;23505;-55
2021/01/16 09:20:48;;;;;;;12.78;5.15;;;;;;;-13.73;55.31;99310.61;1700372;83;21145;-55
2021/01/16 09:23:25;;;;;;;12.60;4.15;;;;;;;-13.66;55.44;99308.66;1694254;83;21707;-56
2021/01/16 09:26:05;;;;;;;15.08;5.40;;;;;;;-13.60;55.07;99309.92;1693132;83;21712;-55
2021/01/16 09:28:56;;;;;;;13.10;4.53;;;;;;;-13.50;54.82;99309.99;1708999;83;21137;-55
2021/01/16 09:31:42;;;;;;;21.35;5.70;;;;;;;-13.62;54.32;99317.09;1703301;83;21327;-54
2021/01/16 09:34:20;;;;;;;15.32;6.60;;;;;;;-13.60;55.13;99316.47;1722107;83;21577;-54
2021/01/16 09:39:32;;;;;;;12.23;5.12;;;;;;;-13.52;55.11;99301.42;1757307;79;23083;-55
2021/01/16 09:42:21;;;;;;;15.83;5.00;;;;;;;-13.49;54.83;99306.39;1662717;84;21352;-55
2021/01/16 09:44:54;;;;;;;14.18;4.92;;;;;;;-13.46;55.26;99300.41;1645067;85;21319;-57
2021/01/16 09:47:33;;;;;;;15.25;6.00;;;;;;;-13.35;54.85;99302.11;1676317;85;21314;-57
2021/01/16 09:50:15;;;;;;;12.20;4.25;;;;;;;-13.28;54.42;99303.24;1648467;85;21768;-57
2021/01/16 09:52:57;;;;;;;14.95;5.03;;;;;;;-13.22;54.03;99302.73;1657715;85;21415;-57
2021/01/16 09:55:32;;;;;;;16.87;4.87;;;;;;;-13.14;53.51;99304.70;1638320;85;21156;-56
2021/01/16 10:05:18;;;;;;;213.05;104.07;;;;;;;-13.01;55.42;99297.39;1762072;79;23063;-55
2021/01/16 10:07:46;;;;;;;24.37;11.48;;;;;;;-12.99;54.93;99291.05;1705671;81;21181;-57
2021/01/16 10:10:17;;;;;;;21.20;8.50;;;;;;;-12.90;54.97;99295.50;1713223;83;21185;-56
2021/01/16 10:12:49;;;;;;;16.05;6.83;;;;;;;-12.68;54.87;99292.63;1712836;82;21194;-57
2021/01/16 10:15:18;;;;;;;16.48;7.03;;;;;;;-12.53;54.29;99285.67;1642064;87;21210;-56
2021/01/16 10:17:54;;;;;;;13.58;5.72;;;;;;;-12.56;54.31;99284.16;1669536;85;21319;-56
2021/01/16 10:20:22;;;;;;;18.45;6.12;;;;;;;-12.43;54.35;99282.08;1666548;85;21826;-58
2021/01/16 10:22:53;;;;;;;15.75;5.45;;;;;;;-12.32;53.93;99289.82;1619051;85;21317;-56
2021/01/16 10:25:22;;;;;;;13.80;4.72;;;;;;;-12.33;53.48;99288.66;1662431;85;21327;-57
2021/01/16 10:27:56;;;;;;;11.35;4.05;;;;;;;-12.43;53.39;99284.70;1677482;84;21248;-58
2021/01/16 10:30:29;;;;;;;12.35;5.53;;;;;;;-12.47;53.43;99282.04;1670377;85;21323;-56
2021/01/16 10:40:10;;;;;;;13.83;6.80;;;;;;;-12.64;53.65;99281.38;1818143;79;22970;-57
2021/01/16 10:42:50;;;;;;;16.50;7.42;;;;;;;-12.68;53.40;99286.58;1779697;80;21283;-57
2021/01/16 10:45:19;;;;;;;17.82;6.90;;;;;;;-12.79;53.55;99277.04;1758949;80;21830;-56
2021/01/16 10:47:47;;;;;;;11.10;5.00;;;;;;;-12.66;53.88;99274.98;1758948;80;21283;-56
2021/01/16 10:50:19;;;;;;;13.25;6.40;;;;;;;-12.57;52.95;99272.52;1761316;80;21661;-57
2021/01/16 10:53:04;;;;;;;20.17;8.25;;;;;;;-12.69;52.75;99281.81;1758672;81;21198;-56
2021/01/16 10:55:54;;;;;;;16.85;5.05;;;;;;;-12.70;53.16;99274.91;1774165;80;21724;-57
2021/01/16 11:05:25;;;;;;;16.07;8.03;;;;;;;-12.82;53.71;99277.28;1778788;79;28379;-57
2021/01/16 11:07:55;;;;;;;15.72;8.83;;;;;;;-12.66;53.92;99274.98;1717847;83;21559;-56
2021/01/16 11:10:33;;;;;;;16.48;10.18;;;;;;;-12.55;52.98;99275.81;1711983;83;21295;-59
2021/01/16 11:13:30;;;;;;;15.45;8.28;;;;;;;-12.68;53.54;99267.72;1692502;83;21372;-57
2021/01/16 11:16:19;;;;;;;14.78;6.03;;;;;;;-12.69;53.69;99265.25;1728194;82;21161;-58
2021/01/16 11:18:47;;;;;;;12.65;5.42;;;;;;;-12.59;53.75;99279.67;1701004;82;21298;-57
2021/01/16 11:21:39;;;;;;;22.67;11.15;;;;;;;-12.59;53.93;99269.18;1727269;82;21168;-58
2021/01/16 11:24:22;;;;;;;19.07;11.50;;;;;;;-12.55;53.76;99270.09;1727762;82;21192;-56
2021/01/16 11:26:50;;;;;;;21.77;7.40;;;;;;;-12.76;53.81;99262.34;1712697;82;21215;-57
2021/01/16 11:29:19;;;;;;;12.30;4.95;;;;;;;-13.05;54.14;99268.48;1712396;84;21190;-57
2021/01/16 11:39:53;;;;;;;15.65;5.85;;;;;;;-13.20;56.19;99257.11;1803641;79;23409;-56
2021/01/16 11:42:22;;;;;;;67.20;29.48;;;;;;;-13.22;55.80;99267.38;1778966;80;21149;-57
2021/01/16 11:45:02;;;;;;;14.85;7.10;;;;;;;-13.27;55.81;99267.77;1748138;80;21165;-58
2021/01/16 11:47:29;;;;;;;28.67;15.45;;;;;;;-13.32;55.24;99268.63;1774951;80;21581;-58
2021/01/16 11:49:59;;;;;;;23.85;15.05;;;;;;;-13.37;55.42;99272.62;1764503;80;21164;-57
2021/01/16 11:52:27;;;;;;;28.20;18.07;;;;;;;-13.34;55.87;99271.88;1766998;80;21699;-58
2021/01/16 11:54:56;;;;;;;37.85;23.83;;;;;;;-13.30;55.64;99273.75;1731254;80;21604;-59
2021/01/16 11:57:24;;;;;;;20.90;9.30;;;;;;;-13.22;56.03;99269.52;1727853;80;21144;-58
2021/01/16 11:59:54;;;;;;;27.10;16.23;;;;;;;-13.09;55.93;99274.98;1779009;80;21708;-58
2021/01/16 12:02:22;;;;;;;39.48;26.50;;;;;;;-13.01;55.13;99273.33;1736065;80;21286;-58
2021/01/16 12:04:50;;;;;;;23.42;14.38;;;;;;;-12.99;55.23;99267.94;1791229;80;21288;-57
2021/01/16 12:07:19;;;;;;;67.78;59.63;;;;;;;-13.00;54.43;99272.34;1760545;81;21191;-58
2021/01/16 12:09:47;;;;;;;21.75;12.43;;;;;;;-13.09;54.93;99267.95;1759758;80;21571;-58
2021/01/16 12:12:17;;;;;;;22.13;10.13;;;;;;;-13.22;54.58;99269.52;1771078;80;21291;-58
2021/01/16 12:14:45;;;;;;;15.63;6.80;;;;;;;-13.19;55.00;99271.03;1765831;80;21279;-58
2021/01/16 12:17:15;;;;;;;18.57;6.80;;;;;;;-13.24;55.28;99268.80;1777112;80;21156;-57
2021/01/16 12:19:44;;;;;;;16.82;5.87;;;;;;;-13.24;55.18;99264.88;1770503;80;21496;-57
2021/01/16 12:29:54;;;;;;;14.35;5.40;;;;;;;-13.24;56.18;99266.19;1762635;79;22991;-57
2021/01/16 12:32:22;;;;;;;15.13;5.90;;;;;;;-13.30;56.63;99264.59;1658695;85;21379;-56
2021/01/16 12:34:55;;;;;;;15.32;6.12;;;;;;;-13.36;56.55;99269.89;1675594;84;21182;-57
2021/01/16 12:37:30;;;;;;;16.42;6.70;;;;;;;-13.30;56.86;99271.13;1657562;85;21181;-57
2021/01/16 12:39:58;;;;;;;21.60;9.48;;;;;;;-13.31;57.15;99265.06;1642030;87;21299;-58
2021/01/16 12:42:27;;;;;;;20.52;8.25;;;;;;;-13.35;57.05;99270.22;1677046;84;21305;-58
2021/01/16 12:45:08;;;;;;;16.35;6.75;;;;;;;-13.33;57.51;99271.41;1634115;85;21356;-59
2021/01/16 12:47:38;;;;;;;19.65;6.47;;;;;;;-13.27;57.81;99266.94;1658428;85;21331;-59
2021/01/16 12:50:28;;;;;;;13.08;5.10;;;;;;;-13.25;57.57;99270.27;1663033;85;21644;-58
2021/01/16 12:52:56;;;;;;;16.85;7.05;;;;;;;-13.28;57.22;99260.86;1763021;80;21333;-58
2021/01/16 12:55:25;;;;;;;18.62;6.90;;;;;;;-13.40;57.49;99269.80;1720913;81;21295;-59
2021/01/16 13:00:45;;;;;;;20.90;8.30;;;;;;;-13.44;57.97;99266.26;1793228;79;23075;-57
2021/01/16 13:03:13;;;;;;;21.07;6.87;;;;;;;-13.45;57.84;99265.90;1760464;80;21183;-57